Greenville Airport (GRE)
Greenville, IL
Field Elevation: 540
Lat: 38°50.00N  Long: 89°22.00W
CTAF/Unicom Freq: 123.0500
   
     For Weather-by-Phone, call (618) 664-1939
Weather Advisories
2019-12-10   06:52 Z
Altimeter 30.06" Hg
Wind 300° @ 14 KT
Gusts 20 KT
Visibility 10 SM
Temperature -3° C (27° F)
Dewpoint -8° C (18° F)
Relative Humidity 68%
Density Altitude --
Condensation Altitude 3,000 feet
Wind Chill: -10° C (14° F)
Wind and Runways
Indicated Runway = 27
Headwind = 12 kt
Crosswind = 7 kt
History
 
 
 
More Info
 
NOAA Forecast
 
Airport IQ 5010
(FLV) Sherman Airfield
(VLA) Vandalia
 
about Belfort Instrument
 
FAA Disclaimer: The data displayed is for advisory purposes only and is not to be used for flight planning or operations. For official data, please call (618) 664-1939 to hear the current automated AWOS voice message.
  METAR GRE 100652Z AUTO 30014G20KT 10 SM M03/M08 A3006